createdAt,value
2022-08-08T00:00:52.596Z,66.00
2022-08-08T00:03:31.429Z,66.92
2022-08-08T00:06:28.335Z,67.27
2022-08-08T00:09:25.362Z,67.23
2022-08-08T00:16:11.724Z,67.33
2022-08-08T00:25:59.401Z,67.98
2022-08-08T00:28:37.020Z,68.13
2022-08-08T00:32:20.780Z,68.69
2022-08-08T00:35:30.361Z,68.61
2022-08-08T00:38:31.404Z,68.88
2022-08-08T00:41:22.017Z,68.94
2022-08-08T00:44:12.180Z,68.99
2022-08-08T00:47:23.069Z,68.57
2022-08-08T00:50:12.366Z,68.81
2022-08-08T00:53:16.131Z,68.84
2022-08-08T00:56:35.141Z,68.70
2022-08-08T00:59:43.799Z,69.77
2022-08-08T01:06:52.285Z,69.16
2022-08-08T01:09:52.106Z,69.43
2022-08-08T01:12:42.302Z,71.41
2022-08-08T01:15:44.204Z,70.94
2022-08-08T01:19:02.720Z,69.86
2022-08-08T01:22:12.607Z,69.72
2022-08-08T01:25:40.193Z,69.95
2022-08-08T01:28:32.482Z,70.21
2022-08-08T01:35:29.757Z,70.03
2022-08-08T01:38:07.071Z,70.94
2022-08-08T01:41:01.126Z,71.59
2022-08-08T01:44:18.485Z,72.16
2022-08-08T01:48:15.542Z,70.77
2022-08-08T01:50:29.865Z,70.50
2022-08-08T01:55:45.986Z,70.15
2022-08-08T01:57:17.690Z,70.50
2022-08-08T02:00:01.998Z,69.92
2022-08-08T02:02:57.466Z,70.35
2022-08-08T02:05:56.485Z,70.69
2022-08-08T02:09:17.436Z,70.86
2022-08-08T02:11:58.984Z,70.31
2022-08-08T02:14:55.848Z,70.46
2022-08-08T02:18:05.543Z,70.69
2022-08-08T02:21:18.099Z,71.12
2022-08-08T02:24:34.116Z,70.74
2022-08-08T02:27:27.327Z,70.85
2022-08-08T02:30:24.763Z,71.06
2022-08-08T02:34:00.087Z,71.18
2022-08-08T02:36:39.648Z,71.61
2022-08-08T02:39:42.557Z,72.38
2022-08-08T02:44:34.948Z,71.95
2022-08-08T02:46:23.679Z,71.35
2022-08-08T02:49:47.835Z,71.50
2022-08-08T02:52:35.384Z,71.35
2022-08-08T02:55:37.775Z,71.38
2022-08-08T02:58:28.378Z,71.28
2022-08-08T03:01:47.235Z,72.06
2022-08-08T03:05:03.479Z,72.40
2022-08-08T03:07:57.742Z,72.10
2022-08-08T03:10:53.860Z,72.23
2022-08-08T03:15:59.173Z,72.12
2022-08-08T03:16:54.255Z,72.79
2022-08-08T03:19:38.553Z,72.61
2022-08-08T03:22:38.502Z,72.31
2022-08-08T03:24:56.838Z,72.65
2022-08-08T03:27:35.824Z,72.19
2022-08-08T03:30:19.071Z,71.81
2022-08-08T03:33:54.880Z,73.00
2022-08-08T03:36:01.166Z,74.04
2022-08-08T03:38:56.191Z,75.34
2022-08-08T03:42:13.340Z,76.51
2022-08-08T03:44:08.032Z,75.95
2022-08-08T03:46:48.634Z,76.91
2022-08-08T03:49:58.928Z,77.75
2022-08-08T03:52:12.826Z,79.08
2022-08-08T03:55:02.323Z,78.18
2022-08-08T03:58:34.328Z,78.42
2022-08-08T04:00:26.927Z,79.42
2022-08-08T04:03:11.634Z,79.10
2022-08-08T04:05:49.595Z,79.18
2022-08-08T04:08:33.860Z,80.49
2022-08-08T04:11:11.363Z,80.08
2022-08-08T04:14:33.065Z,79.29
2022-08-08T04:16:40.349Z,78.69
2022-08-08T04:19:23.287Z,78.10
2022-08-08T04:21:54.169Z,80.03
2022-08-08T04:24:29.357Z,80.11
2022-08-08T04:27:00.595Z,80.76
2022-08-08T04:29:33.298Z,80.65
2022-08-08T04:32:10.591Z,81.20
2022-08-08T04:34:49.277Z,80.89
2022-08-08T04:37:31.629Z,79.90
2022-08-08T04:40:10.517Z,79.95
2022-08-08T04:42:57.281Z,79.40
2022-08-08T04:45:46.377Z,80.95
2022-08-08T04:48:15.463Z,80.47
2022-08-08T04:50:45.951Z,81.16
2022-08-08T04:54:27.144Z,80.49
2022-08-08T04:56:07.846Z,80.50
2022-08-08T04:58:37.193Z,80.76
2022-08-08T05:01:11.012Z,80.60
2022-08-08T05:04:10.457Z,80.18
2022-08-08T05:06:39.297Z,79.94
2022-08-08T05:09:09.069Z,81.00
2022-08-08T05:11:41.130Z,81.46
2022-08-08T05:14:14.937Z,82.01
2022-08-08T05:17:00.596Z,82.07
2022-08-08T05:20:10.667Z,80.21
2022-08-08T05:22:32.688Z,80.55
2022-08-08T05:25:02.970Z,81.08
2022-08-08T05:27:33.180Z,80.11
2022-08-08T05:30:03.815Z,78.77
2022-08-08T05:32:50.952Z,78.68
2022-08-08T05:35:24.019Z,81.11
2022-08-08T05:38:30.600Z,80.59
2022-08-08T05:41:02.410Z,79.57
2022-08-08T05:43:39.154Z,79.14
2022-08-08T05:46:10.545Z,79.21
2022-08-08T05:48:41.886Z,78.31
2022-08-08T05:51:15.094Z,77.82
2022-08-08T05:54:25.661Z,77.23
2022-08-08T05:56:47.609Z,76.91
2022-08-08T05:59:59.053Z,77.10
2022-08-08T06:02:43.513Z,77.53
2022-08-08T06:05:35.474Z,76.85
2022-08-08T06:08:28.209Z,77.15
2022-08-08T06:11:05.203Z,77.19
2022-08-08T06:13:36.149Z,77.02
2022-08-08T06:16:19.178Z,75.45
2022-08-08T06:18:55.370Z,74.54
2022-08-08T06:21:32.541Z,73.55
2022-08-08T06:24:30.251Z,72.58
2022-08-08T06:27:06.271Z,71.09
2022-08-08T06:30:00.094Z,68.97
2022-08-08T06:32:50.206Z,70.15
2022-08-08T06:36:06.220Z,69.49
2022-08-08T06:38:17.446Z,69.04
2022-08-08T06:40:54.338Z,67.87
2022-08-08T06:43:57.506Z,67.96
2022-08-08T06:46:30.986Z,67.44
2022-08-08T06:49:00.995Z,66.32
2022-08-08T06:51:46.639Z,66.12
2022-08-08T06:54:20.258Z,65.58
2022-08-08T06:56:52.728Z,65.64
2022-08-08T06:59:21.623Z,65.79
2022-08-08T07:02:26.877Z,66.30
2022-08-08T07:04:55.825Z,66.27
2022-08-08T07:07:57.191Z,66.64
2022-08-08T07:10:35.525Z,65.53
2022-08-08T07:13:09.547Z,65.16
2022-08-08T07:16:04.370Z,64.81
2022-08-08T07:18:55.909Z,64.64
2022-08-08T07:21:32.147Z,64.34
2022-08-08T07:24:17.776Z,62.20
2022-08-08T07:26:53.286Z,60.29
2022-08-08T07:30:01.685Z,61.17
2022-08-08T07:32:15.789Z,60.09
2022-08-08T07:34:59.319Z,60.48
2022-08-08T07:37:55.772Z,61.76
2022-08-08T07:40:29.174Z,62.26
2022-08-08T07:43:01.389Z,62.52
2022-08-08T07:45:34.320Z,63.09
2022-08-08T07:48:05.123Z,62.53
2022-08-08T07:50:35.015Z,61.39
2022-08-08T07:54:01.550Z,61.77
2022-08-08T07:56:55.538Z,61.52
2022-08-08T07:59:27.217Z,62.01
2022-08-08T08:02:35.000Z,61.94
2022-08-08T08:05:03.703Z,61.63
2022-08-08T08:07:37.798Z,61.49
2022-08-08T08:10:13.287Z,61.23
2022-08-08T08:12:54.209Z,60.65
2022-08-08T08:15:31.804Z,60.26
2022-08-08T08:18:05.951Z,60.37
2022-08-08T08:20:44.474Z,59.31
2022-08-08T08:23:14.550Z,58.83
2022-08-08T08:25:56.721Z,58.22
2022-08-08T08:28:26.974Z,57.58
2022-08-08T08:31:05.054Z,57.02
2022-08-08T08:33:36.150Z,55.71
2022-08-08T08:36:20.026Z,54.94
2022-08-08T08:38:52.210Z,53.56
2022-08-08T08:41:30.979Z,53.74
2022-08-08T08:44:13.694Z,53.53
2022-08-08T08:46:47.438Z,52.52
2022-08-08T08:49:19.925Z,51.91
2022-08-08T08:51:54.363Z,50.60
2022-08-08T08:54:25.752Z,49.42
2022-08-08T08:56:56.409Z,48.73
2022-08-08T08:59:58.757Z,47.77
2022-08-08T09:02:21.835Z,47.03
2022-08-08T09:04:59.489Z,46.59
2022-08-08T09:07:38.985Z,46.34
2022-08-08T09:10:23.503Z,46.21
2022-08-08T09:13:00.617Z,45.97
2022-08-08T09:15:40.894Z,46.12
2022-08-08T09:18:13.125Z,45.36
2022-08-08T09:21:59.988Z,44.74
2022-08-08T09:23:40.673Z,45.11
2022-08-08T09:26:32.279Z,44.42
2022-08-08T09:29:08.195Z,43.45
2022-08-08T09:32:19.607Z,43.08
2022-08-08T09:34:51.656Z,41.77
2022-08-08T09:37:59.345Z,41.58
2022-08-08T09:40:21.327Z,40.88
2022-08-08T09:43:16.400Z,41.19
2022-08-08T09:46:06.628Z,41.34
2022-08-08T09:48:46.422Z,40.84
2022-08-08T09:51:26.843Z,40.48
2022-08-08T09:54:08.366Z,39.65
2022-08-08T09:56:45.362Z,39.83
2022-08-08T10:02:29.305Z,38.62
2022-08-08T10:05:23.036Z,38.66
2022-08-08T10:08:00.075Z,39.67
2022-08-08T10:10:33.912Z,39.77
2022-08-08T10:13:35.533Z,40.68
2022-08-08T10:16:05.178Z,40.98
2022-08-08T10:18:36.592Z,41.43
2022-08-08T10:21:25.713Z,41.91
2022-08-08T10:24:03.354Z,42.36
2022-08-08T10:26:57.438Z,42.49
2022-08-08T10:29:58.829Z,43.13
2022-08-08T10:32:38.259Z,43.68
2022-08-08T10:36:01.905Z,44.03
2022-08-08T10:38:07.868Z,42.09
2022-08-08T10:40:39.309Z,42.45
2022-08-08T10:43:09.901Z,43.37
2022-08-08T10:45:55.068Z,44.34
2022-08-08T10:48:55.841Z,45.22
2022-08-08T10:51:26.092Z,46.38
2022-08-08T10:53:58.300Z,47.35
2022-08-08T10:56:34.682Z,48.37
2022-08-08T10:59:14.136Z,49.00
2022-08-08T11:01:54.342Z,49.78
2022-08-08T11:04:29.575Z,50.72
2022-08-08T11:07:01.326Z,51.78
2022-08-08T11:09:32.213Z,52.68
2022-08-08T11:12:13.140Z,53.37
2022-08-08T11:15:00.816Z,53.96
2022-08-08T11:17:59.718Z,54.36
2022-08-08T11:20:27.278Z,54.70
2022-08-08T11:23:05.697Z,54.97
2022-08-08T11:25:52.963Z,55.40
2022-08-08T11:28:30.524Z,56.13
2022-08-08T11:31:03.651Z,56.63
2022-08-08T11:33:52.387Z,57.01
2022-08-08T11:36:27.569Z,57.18
2022-08-08T11:38:57.367Z,57.26
2022-08-08T11:41:33.647Z,57.42
2022-08-08T11:44:05.525Z,57.74
2022-08-08T11:46:34.948Z,57.73
2022-08-08T11:49:09.260Z,58.88
2022-08-08T11:51:49.914Z,59.63
2022-08-08T11:54:33.954Z,59.98
2022-08-08T11:57:17.330Z,60.22
2022-08-08T12:00:00.587Z,60.46
2022-08-08T12:02:51.479Z,60.70
2022-08-08T12:05:33.659Z,61.17
2022-08-08T12:08:04.383Z,62.88
2022-08-08T12:10:34.487Z,64.30
2022-08-08T12:13:12.382Z,64.55
2022-08-08T12:15:49.401Z,64.31
2022-08-08T12:18:24.458Z,63.79
2022-08-08T12:20:55.394Z,64.38
2022-08-08T12:23:30.631Z,65.15
2022-08-08T12:26:17.155Z,64.57
2022-08-08T12:28:59.699Z,65.19
2022-08-08T12:31:39.210Z,64.71
2022-08-08T12:34:38.016Z,64.98
2022-08-08T12:37:11.264Z,66.52
2022-08-08T12:40:00.722Z,66.79
2022-08-08T12:42:32.967Z,67.20
2022-08-08T12:45:58.297Z,68.26
2022-08-08T12:48:09.747Z,68.16
2022-08-08T12:50:49.594Z,68.36
2022-08-08T12:53:30.251Z,68.07
2022-08-08T12:56:19.392Z,68.41
2022-08-08T12:58:54.575Z,68.97
2022-08-08T13:01:37.750Z,69.42
2022-08-08T13:04:18.342Z,70.11
2022-08-08T13:06:55.179Z,70.57
2022-08-08T13:09:43.045Z,71.35
2022-08-08T13:12:30.753Z,70.93
2022-08-08T13:15:06.076Z,70.79
2022-08-08T13:18:09.287Z,70.85
2022-08-08T13:20:27.097Z,70.64
2022-08-08T13:23:29.924Z,70.23
2022-08-08T13:25:50.150Z,69.74
2022-08-08T13:28:32.106Z,68.89
2022-08-08T13:31:05.346Z,68.62
2022-08-08T13:33:42.103Z,68.20
2022-08-08T13:36:12.092Z,67.12
2022-08-08T13:38:40.865Z,66.70
2022-08-08T13:41:16.065Z,66.49
2022-08-08T13:43:49.920Z,66.61
2022-08-08T13:46:28.703Z,66.80
2022-08-08T13:49:11.487Z,66.07
2022-08-08T13:51:57.243Z,65.49
2022-08-08T13:54:29.560Z,66.49
2022-08-08T13:57:12.822Z,67.04
2022-08-08T13:59:48.533Z,67.51
2022-08-08T14:02:23.468Z,67.80
2022-08-08T14:05:04.845Z,67.81
2022-08-08T14:07:52.579Z,67.69
2022-08-08T14:10:32.959Z,67.61
2022-08-08T14:13:30.293Z,68.00
2022-08-08T14:16:16.041Z,68.36
2022-08-08T14:18:57.779Z,68.79
2022-08-08T14:21:48.829Z,68.57
2022-08-08T14:24:34.433Z,68.64
2022-08-08T14:27:07.683Z,67.63
2022-08-08T14:29:39.510Z,67.48
2022-08-08T14:32:17.081Z,67.45
2022-08-08T14:34:56.177Z,67.24
2022-08-08T14:37:27.918Z,67.33
2022-08-08T14:40:05.633Z,67.36
2022-08-08T14:42:55.378Z,67.43
2022-08-08T14:45:33.247Z,67.29
2022-08-08T14:48:27.429Z,67.09
2022-08-08T14:51:07.536Z,66.75
2022-08-08T14:53:54.527Z,66.05
2022-08-08T14:56:26.892Z,64.50
2022-08-08T14:58:57.908Z,64.27
2022-08-08T15:01:37.391Z,66.05
2022-08-08T15:04:11.794Z,66.14
2022-08-08T15:06:42.443Z,66.05
2022-08-08T15:09:12.786Z,65.27
2022-08-08T15:11:46.553Z,64.24
2022-08-08T15:14:25.089Z,64.57
2022-08-08T15:16:57.051Z,64.92
2022-08-08T15:19:28.212Z,65.38
2022-08-08T15:21:57.880Z,65.92
2022-08-08T15:24:31.367Z,66.35
2022-08-08T15:27:11.926Z,66.87
2022-08-08T15:29:49.835Z,66.49
2022-08-08T15:32:20.866Z,66.70
2022-08-08T15:34:51.596Z,67.07
2022-08-08T15:37:19.995Z,67.02
2022-08-08T15:39:48.695Z,66.83
2022-08-08T15:42:33.122Z,66.66
2022-08-08T15:45:02.534Z,67.25
2022-08-08T15:47:32.158Z,67.41
2022-08-08T15:50:01.666Z,67.41
2022-08-08T15:52:31.408Z,67.15
2022-08-08T15:55:01.872Z,67.34
2022-08-08T15:57:35.651Z,67.43
2022-08-08T16:00:27.316Z,67.62
2022-08-08T16:02:58.025Z,67.41
2022-08-08T16:05:35.587Z,67.25
2022-08-08T16:08:19.946Z,67.28
2022-08-08T16:13:02.012Z,67.19
2022-08-08T16:13:45.009Z,67.31
2022-08-08T16:16:18.029Z,67.42
2022-08-08T16:18:57.254Z,67.57
2022-08-08T16:21:30.928Z,67.51
2022-08-08T16:24:03.410Z,67.67
2022-08-08T16:26:36.313Z,67.57
2022-08-08T16:29:08.767Z,67.36
2022-08-08T16:31:44.737Z,66.99
2022-08-08T16:34:20.815Z,66.55
2022-08-08T16:36:52.780Z,66.23
2022-08-08T16:39:49.042Z,66.14
2022-08-08T16:42:13.913Z,66.32
2022-08-08T16:44:54.274Z,66.29
2022-08-08T16:47:40.247Z,65.42
2022-08-08T16:50:20.173Z,64.42
2022-08-08T16:55:06.468Z,63.81
2022-08-08T16:55:56.726Z,63.54
2022-08-08T16:58:29.457Z,62.74
2022-08-08T17:01:05.545Z,61.09
2022-08-08T17:03:58.591Z,60.85
2022-08-08T17:06:41.738Z,60.99
2022-08-08T17:09:14.882Z,61.47
2022-08-08T17:11:49.306Z,61.72
2022-08-08T17:14:27.212Z,61.91
2022-08-08T17:17:22.957Z,62.10
2022-08-08T17:19:55.459Z,61.53
2022-08-08T17:22:38.917Z,60.99
2022-08-08T17:25:11.670Z,61.40
2022-08-08T17:27:46.576Z,61.72
2022-08-08T17:30:27.443Z,61.94
2022-08-08T17:34:53.692Z,62.36
2022-08-08T17:35:56.191Z,62.20
2022-08-08T17:38:34.543Z,62.37
2022-08-08T17:41:02.944Z,61.83
2022-08-08T17:43:32.614Z,61.56
2022-08-08T17:46:55.726Z,61.48
2022-08-08T17:49:28.787Z,61.65
2022-08-08T17:52:11.265Z,61.59
2022-08-08T17:54:40.982Z,61.53
2022-08-08T17:57:14.629Z,62.45
2022-08-08T17:59:45.777Z,63.62
2022-08-08T18:02:18.605Z,63.99
2022-08-08T18:04:51.013Z,63.95
2022-08-08T18:08:03.575Z,64.27
2022-08-08T18:10:08.147Z,64.68
2022-08-08T18:12:37.168Z,64.81
2022-08-08T18:15:07.353Z,64.75
2022-08-08T18:18:05.407Z,65.05
2022-08-08T18:20:43.989Z,63.23
2022-08-08T18:23:15.925Z,63.30
2022-08-08T18:25:44.924Z,63.15
2022-08-08T18:28:14.347Z,63.33
2022-08-08T18:30:43.056Z,63.95
2022-08-08T18:33:36.933Z,64.29
2022-08-08T18:36:03.356Z,64.73
2022-08-08T18:38:34.323Z,65.44
2022-08-08T18:41:03.306Z,65.53
2022-08-08T18:43:42.829Z,65.45
2022-08-08T18:46:56.114Z,66.70
2022-08-08T18:49:01.028Z,67.19
2022-08-08T18:51:53.188Z,68.59
2022-08-08T18:54:22.572Z,68.84
2022-08-08T18:56:55.455Z,68.49
2022-08-08T18:59:23.857Z,67.91
2022-08-08T19:02:25.085Z,67.45
2022-08-08T19:04:40.685Z,67.17
2022-08-08T19:07:12.256Z,66.71
2022-08-08T19:09:48.955Z,66.50
2022-08-08T19:12:29.593Z,66.19
2022-08-08T19:14:58.059Z,66.16
2022-08-08T19:17:29.507Z,66.30
2022-08-08T19:20:17.514Z,66.30
2022-08-08T19:22:47.873Z,66.57
2022-08-08T19:26:01.223Z,66.97
2022-08-08T19:28:17.847Z,67.07
2022-08-08T19:31:03.266Z,67.14
2022-08-08T19:33:51.601Z,67.29
2022-08-08T19:36:27.457Z,67.58
2022-08-08T19:38:57.200Z,67.77
2022-08-08T19:41:33.582Z,68.36
2022-08-08T19:44:12.658Z,68.53
2022-08-08T19:46:50.603Z,68.80
2022-08-08T19:49:19.636Z,69.17
2022-08-08T19:51:49.104Z,69.17
2022-08-08T19:54:17.508Z,69.25
2022-08-08T19:56:48.629Z,69.16
2022-08-08T19:59:18.839Z,69.81
2022-08-08T20:02:03.552Z,70.21
2022-08-08T20:04:34.805Z,70.82
2022-08-08T20:08:29.786Z,71.06
2022-08-08T20:09:56.146Z,71.34
2022-08-08T20:12:32.464Z,71.77
2022-08-08T20:15:15.163Z,71.80
2022-08-08T20:17:47.861Z,73.67
2022-08-08T20:20:20.533Z,73.91
2022-08-08T20:22:54.024Z,73.97
2022-08-08T20:25:29.810Z,73.92
2022-08-08T20:28:06.401Z,73.49
2022-08-08T20:30:55.699Z,74.28
2022-08-08T20:35:57.850Z,74.53
2022-08-08T20:38:32.777Z,74.98
2022-08-08T20:41:17.751Z,75.44
2022-08-08T20:43:49.760Z,75.53
2022-08-08T20:46:25.309Z,76.28
2022-08-08T20:48:58.229Z,78.94
2022-08-08T20:51:32.410Z,79.23
2022-08-08T20:54:04.840Z,79.35
2022-08-08T20:57:04.682Z,79.79
2022-08-08T20:59:29.276Z,80.99
2022-08-08T21:02:07.654Z,80.52
2022-08-08T21:04:38.177Z,80.20
2022-08-08T21:07:08.141Z,79.60
2022-08-08T21:09:48.658Z,81.68
2022-08-08T21:12:33.050Z,80.11
2022-08-08T21:15:09.645Z,78.82
2022-08-08T21:17:38.308Z,79.39
2022-08-08T21:20:09.661Z,79.94
2022-08-08T21:22:38.050Z,79.72
2022-08-08T21:25:10.604Z,79.42
2022-08-08T21:28:09.271Z,79.73
2022-08-08T21:30:30.364Z,79.90
2022-08-08T21:32:59.160Z,80.79
2022-08-08T21:36:16.237Z,79.65
2022-08-08T21:38:18.257Z,80.32
2022-08-08T21:40:54.969Z,79.86
2022-08-08T21:43:33.571Z,81.02
2022-08-08T21:48:06.186Z,82.02
2022-08-08T21:48:54.538Z,81.41
2022-08-08T21:54:16.871Z,80.94
2022-08-08T21:54:51.772Z,81.52
2022-08-08T21:57:09.518Z,80.17
2022-08-08T22:00:01.982Z,80.65
2022-08-08T22:02:26.632Z,80.65
2022-08-08T22:04:58.859Z,80.63
2022-08-08T22:07:39.724Z,81.38
2022-08-08T22:10:18.434Z,81.93
2022-08-08T22:13:18.922Z,82.35
2022-08-08T22:15:58.691Z,83.21
2022-08-08T22:18:33.879Z,83.05
2022-08-08T22:21:10.721Z,82.50
2022-08-08T22:23:50.323Z,82.48
2022-08-08T22:26:28.806Z,82.15
2022-08-08T22:29:13.254Z,81.18
2022-08-08T22:32:01.830Z,80.35
2022-08-08T22:34:39.170Z,79.83
2022-08-08T22:37:27.792Z,79.73
2022-08-08T22:40:00.832Z,79.48
2022-08-08T22:42:31.893Z,80.35
2022-08-08T22:45:12.610Z,79.87
2022-08-08T22:47:47.385Z,79.29
2022-08-08T22:50:25.799Z,78.30
2022-08-08T22:54:29.335Z,77.76
2022-08-08T22:55:58.589Z,78.04
2022-08-08T22:58:33.012Z,77.92
2022-08-08T23:01:26.449Z,78.04
2022-08-08T23:03:57.098Z,77.89
2022-08-08T23:06:27.044Z,78.34
2022-08-08T23:08:59.002Z,78.12
2022-08-08T23:12:17.914Z,77.32
2022-08-08T23:14:21.489Z,77.62
2022-08-08T23:16:54.564Z,79.40
2022-08-08T23:19:32.279Z,79.12
2022-08-08T23:22:04.630Z,79.75
2022-08-08T23:24:36.630Z,80.06
2022-08-08T23:27:17.167Z,82.24
2022-08-08T23:30:00.226Z,83.90
2022-08-08T23:32:28.587Z,82.97
2022-08-08T23:34:59.021Z,82.41
2022-08-08T23:38:00.833Z,81.97
2022-08-08T23:40:21.861Z,81.13
2022-08-08T23:42:51.462Z,80.40
2022-08-08T23:48:59.779Z,83.95
2022-08-08T23:49:01.623Z,80.93
2022-08-08T23:50:58.107Z,86.18
2022-08-08T23:54:05.890Z,86.76
2022-08-08T23:56:24.085Z,86.14
2022-08-08T23:59:02.380Z,86.19
